Kulgera, Australia
Current Conditions -  °F | °C
As of 6:23 AM on Saturday 25 Oct 2014 (Local Time) from YBAS Reporting Station
Clear Clear  
Wind Chill: 81°   Ceiling: Unl
Heat Index: 81°   Visibility: 6mi
Dew Point: 57°   Wind: 0mph
Humidity: 45%   Direction: NA
Pressure: 30.09"   Gusts: NA
Location:  25.84°S, 133.32°E
Report Text: YBAS 242123Z AUTO 00000KT 9999 // NCD 27/14 Q1019
Loading
Personal Weather Stations






























Interactive Weather Map
Tropical Storm Tracking
New forecast layout! Learn more

10-Day Weather Forecast

Advertisements
Track Severe Weather on mobile